Time;durP1;ratioP1;P1;durP2;ratioP2;P2;SDS_P1;SDS_P2;PMS_P1;PMS_P2;Temp;Humidity;BMP_temperature;BMP_pressure;BME280_temperature;BME280_humidity;BME280_pressure;Samples;Min_cycle;Max_cycle;Signal;HPM_P1;HPM_P2
2022/04/27 00:02:07;;;;;;;11.48;10.35;;;8.50;99.90;;;;;;5074477;28;20036;-75
2022/04/27 00:04:32;;;;;;;11.82;10.50;;;8.50;99.90;;;;;;5075761;28;20119;-75
2022/04/27 00:06:58;;;;;;;11.80;10.70;;;8.60;99.90;;;;;;5074183;28;20063;-75
2022/04/27 00:09:24;;;;;;;12.38;11.27;;;8.60;99.90;;;;;;5073510;28;20024;-75
2022/04/27 00:11:49;;;;;;;11.98;10.77;;;8.50;99.90;;;;;;5068840;28;20491;-77
2022/04/27 00:14:15;;;;;;;12.23;10.93;;;8.50;99.90;;;;;;5074234;28;20086;-76
2022/04/27 00:16:41;;;;;;;12.95;11.10;;;8.50;99.90;;;;;;5072575;28;20021;-74
2022/04/27 00:19:07;;;;;;;13.70;11.43;;;8.50;99.90;;;;;;5076088;28;20034;-75
2022/04/27 00:21:33;;;;;;;19.10;13.18;;;8.50;99.90;;;;;;5077337;28;20028;-75
2022/04/27 00:23:59;;;;;;;12.30;11.00;;;8.50;99.90;;;;;;5073849;28;20023;-76
2022/04/27 00:26:24;;;;;;;15.00;12.02;;;8.50;99.90;;;;;;5072863;28;20017;-75
2022/04/27 00:28:50;;;;;;;13.32;12.02;;;8.50;99.90;;;;;;5076388;28;20047;-75
2022/04/27 00:31:15;;;;;;;16.05;13.70;;;8.50;99.90;;;;;;5078583;28;20020;-75
2022/04/27 00:33:41;;;;;;;14.38;12.98;;;8.50;99.90;;;;;;5082169;28;20020;-75
2022/04/27 00:36:07;;;;;;;16.88;15.05;;;8.40;99.90;;;;;;5080142;28;20020;-76
2022/04/27 00:38:32;;;;;;;15.95;14.30;;;8.40;99.90;;;;;;5073257;28;20519;-75
2022/04/27 00:40:58;;;;;;;15.93;14.05;;;8.40;99.90;;;;;;5075951;28;20020;-76
2022/04/27 00:43:41;;;;;;;16.48;14.73;;;8.30;99.90;;;;;;5073810;28;20099;-76
2022/04/27 00:46:11;;;;;;;17.63;15.82;;;8.30;99.90;;;;;;5071677;28;20028;-76
2022/04/27 00:48:39;;;;;;;17.67;15.40;;;8.40;99.90;;;;;;5067136;28;20024;-76
2022/04/27 00:51:05;;;;;;;18.67;16.27;;;8.40;99.90;;;;;;5079473;28;20069;-75
2022/04/27 00:53:31;;;;;;;19.65;15.40;;;8.40;99.90;;;;;;5069777;28;20068;-75
2022/04/27 00:55:58;;;;;;;18.00;16.13;;;8.40;99.90;;;;;;5077795;28;20552;-75
2022/04/27 00:58:26;;;;;;;19.13;16.60;;;8.40;99.90;;;;;;5074577;28;20074;-75
2022/04/27 01:00:55;;;;;;;18.80;16.50;;;8.40;99.90;;;;;;5064853;28;20016;-74
2022/04/27 01:03:22;;;;;;;17.80;15.68;;;8.40;99.90;;;;;;5073313;28;20020;-74
2022/04/27 01:05:49;;;;;;;18.55;16.15;;;8.40;99.90;;;;;;5071467;28;20020;-75
2022/04/27 01:08:16;;;;;;;18.38;16.42;;;8.40;99.90;;;;;;5073842;28;20099;-75
2022/04/27 01:10:44;;;;;;;18.58;15.90;;;8.40;99.90;;;;;;5072639;28;20384;-74
2022/04/27 01:13:11;;;;;;;18.30;16.23;;;8.50;99.90;;;;;;5073114;28;20515;-75
2022/04/27 01:15:36;;;;;;;23.23;16.88;;;8.50;99.90;;;;;;5072013;28;20448;-75
2022/04/27 01:18:03;;;;;;;20.38;16.98;;;8.50;99.90;;;;;;5072621;28;20056;-75
2022/04/27 01:20:40;;;;;;;18.88;16.90;;;8.50;99.90;;;;;;5074981;28;20027;-75
2022/04/27 01:23:06;;;;;;;18.00;15.88;;;8.50;99.90;;;;;;5074968;28;20016;-75
2022/04/27 01:25:49;;;;;;;19.38;15.95;;;8.50;99.90;;;;;;5073966;28;20078;-75
2022/04/27 01:28:22;;;;;;;18.45;16.10;;;8.60;99.90;;;;;;5071750;28;20416;-76
2022/04/27 01:30:54;;;;;;;21.15;16.90;;;8.60;99.90;;;;;;5071071;28;20116;-75
2022/04/27 01:33:19;;;;;;;21.33;17.50;;;8.60;99.90;;;;;;5077786;28;20021;-75
2022/04/27 01:35:45;;;;;;;20.50;16.58;;;8.60;99.90;;;;;;5076158;28;20115;-75
2022/04/27 01:38:10;;;;;;;18.42;16.50;;;8.50;99.90;;;;;;5074655;28;20093;-76
2022/04/27 01:40:36;;;;;;;19.23;16.98;;;8.60;99.90;;;;;;5076657;28;20078;-74
2022/04/27 01:43:02;;;;;;;21.70;16.70;;;8.60;99.90;;;;;;5076993;28;20024;-75
2022/04/27 01:45:28;;;;;;;24.13;19.05;;;8.60;99.90;;;;;;5068747;28;20094;-75
2022/04/27 01:47:54;;;;;;;21.42;18.55;;;8.60;99.90;;;;;;5070026;28;20020;-75
2022/04/27 01:50:20;;;;;;;24.02;19.45;;;8.60;99.90;;;;;;5075724;28;20362;-75
2022/04/27 01:55:30;;;;;;;24.88;20.20;;;8.60;99.90;;;;;;5069282;28;20047;-76
2022/04/27 01:57:55;;;;;;;24.83;19.42;;;8.70;99.90;;;;;;5072941;28;20029;-75
2022/04/27 02:00:21;;;;;;;23.38;19.60;;;8.70;99.90;;;;;;5069856;28;20111;-75
2022/04/27 02:02:47;;;;;;;26.48;20.65;;;8.70;99.90;;;;;;5069581;28;20025;-75
2022/04/27 02:05:13;;;;;;;26.48;21.08;;;8.60;99.90;;;;;;5067794;28;20033;-76
2022/04/27 02:07:38;;;;;;;27.52;22.52;;;8.60;99.90;;;;;;5072163;28;20495;-75
2022/04/27 02:10:06;;;;;;;26.92;20.30;;;8.70;99.90;;;;;;5078170;28;20103;-74
2022/04/27 02:12:32;;;;;;;26.05;21.55;;;8.60;99.90;;;;;;5087089;28;20020;-75
2022/04/27 02:14:58;;;;;;;28.30;23.13;;;8.70;99.90;;;;;;5077969;28;20392;-75
2022/04/27 02:17:24;;;;;;;27.98;21.88;;;8.70;99.90;;;;;;5069098;28;20028;-75
2022/04/27 02:19:50;;;;;;;23.98;20.00;;;8.70;99.90;;;;;;5071488;28;20024;-75
2022/04/27 02:22:16;;;;;;;26.63;19.05;;;8.70;99.90;;;;;;5069892;28;20033;-75
2022/04/27 02:24:41;;;;;;;21.58;18.65;;;8.70;99.90;;;;;;5071189;28;20099;-75
2022/04/27 02:27:07;;;;;;;25.13;20.05;;;8.70;99.90;;;;;;5068803;28;20021;-76
2022/04/27 02:29:33;;;;;;;23.08;19.48;;;8.70;99.90;;;;;;5071827;28;20032;-75
2022/04/27 02:31:58;;;;;;;25.77;20.55;;;8.70;99.90;;;;;;5071747;28;20499;-75
2022/04/27 02:34:24;;;;;;;24.35;19.83;;;8.70;99.90;;;;;;5071631;28;20138;-75
2022/04/27 02:36:49;;;;;;;25.00;19.63;;;8.80;99.90;;;;;;5072814;28;20380;-75
2022/04/27 02:39:15;;;;;;;23.08;19.95;;;8.70;99.90;;;;;;5071699;28;20021;-75
2022/04/27 02:41:41;;;;;;;21.65;18.80;;;8.80;99.90;;;;;;5070466;28;20043;-74
2022/04/27 02:44:07;;;;;;;23.02;19.23;;;8.80;99.90;;;;;;5070945;28;20036;-75
2022/04/27 02:46:32;;;;;;;22.80;18.45;;;8.80;99.90;;;;;;5071584;28;20050;-75
2022/04/27 02:51:54;;;;;;;21.83;18.48;;;8.80;99.90;;;;;;5071786;28;20107;-75
2022/04/27 02:54:22;;;;;;;22.33;18.77;;;8.80;99.90;;;;;;5071175;28;20020;-75
2022/04/27 02:56:48;;;;;;;22.77;18.25;;;8.80;99.90;;;;;;5065897;28;20381;-75
2022/04/27 02:59:15;;;;;;;23.63;19.95;;;8.70;99.90;;;;;;5070463;28;20484;-75
2022/04/27 03:01:41;;;;;;;21.10;18.00;;;8.80;99.90;;;;;;5071830;28;20035;-75
2022/04/27 03:04:07;;;;;;;20.67;16.83;;;8.80;99.90;;;;;;5071972;28;20024;-74
2022/04/27 03:06:33;;;;;;;18.05;16.02;;;8.70;99.90;;;;;;5065045;28;20412;-75
2022/04/27 03:08:58;;;;;;;19.05;16.13;;;8.70;99.90;;;;;;5071794;28;20014;-75
2022/04/27 03:11:24;;;;;;;19.23;16.45;;;8.70;99.90;;;;;;5074510;28;20032;-77
2022/04/27 03:13:50;;;;;;;21.40;16.23;;;8.70;99.90;;;;;;5072790;28;20013;-74
2022/04/27 03:16:15;;;;;;;21.15;16.40;;;8.70;99.90;;;;;;5071651;28;20029;-75
2022/04/27 03:18:42;;;;;;;21.45;16.45;;;8.70;99.90;;;;;;5060886;28;20113;-75
2022/04/27 03:21:09;;;;;;;19.73;17.17;;;8.80;99.90;;;;;;5071027;28;20021;-75
2022/04/27 03:23:34;;;;;;;18.88;16.88;;;9.00;99.90;;;;;;5069722;28;20016;-76
2022/04/27 03:26:00;;;;;;;19.60;16.40;;;8.90;99.90;;;;;;5070812;28;20472;-76
2022/04/27 03:28:25;;;;;;;19.98;16.95;;;8.90;99.90;;;;;;5068505;28;20550;-76
2022/04/27 03:30:51;;;;;;;18.65;16.70;;;8.80;99.90;;;;;;5069207;28;20029;-75
2022/04/27 03:33:18;;;;;;;18.83;16.77;;;8.80;99.90;;;;;;5071389;28;20074;-75
2022/04/27 03:35:44;;;;;;;19.30;17.27;;;8.80;99.90;;;;;;5070846;28;20104;-75
2022/04/27 03:38:09;;;;;;;20.63;16.65;;;8.70;99.90;;;;;;5075814;28;20103;-75
2022/04/27 03:40:36;;;;;;;20.65;15.82;;;8.70;99.90;;;;;;5068446;28;20033;-76
2022/04/27 03:43:02;;;;;;;19.85;16.38;;;8.80;99.90;;;;;;5070385;28;20112;-75
2022/04/27 03:45:27;;;;;;;19.15;15.65;;;9.00;99.90;;;;;;5070611;28;20104;-74
2022/04/27 03:47:53;;;;;;;18.23;15.30;;;9.10;99.90;;;;;;5070814;28;20047;-76
2022/04/27 03:50:19;;;;;;;17.77;15.60;;;9.20;99.90;;;;;;5071177;28;20020;-76
2022/04/27 03:52:44;;;;;;;18.92;15.77;;;9.10;99.90;;;;;;5069504;28;20016;-75
2022/04/27 03:55:11;;;;;;;19.02;17.02;;;9.20;99.90;;;;;;5069602;28;20508;-75
2022/04/27 03:57:39;;;;;;;18.60;15.75;;;9.10;99.90;;;;;;5066152;28;20029;-75
2022/04/27 04:00:09;;;;;;;17.15;14.98;;;9.10;99.90;;;;;;5070506;28;20102;-75
2022/04/27 04:02:36;;;;;;;18.65;16.65;;;9.00;99.90;;;;;;5070476;28;20024;-75
2022/04/27 04:05:03;;;;;;;18.73;16.20;;;9.00;99.90;;;;;;5073106;28;20532;-75
2022/04/27 04:07:29;;;;;;;17.70;15.38;;;9.10;99.90;;;;;;5073003;28;20028;-75
2022/04/27 04:09:54;;;;;;;17.88;15.60;;;9.10;99.90;;;;;;5074349;28;20024;-75
2022/04/27 04:12:20;;;;;;;20.80;16.95;;;9.00;99.90;;;;;;5073459;28;20028;-75
2022/04/27 04:14:45;;;;;;;16.58;14.82;;;8.90;99.90;;;;;;5072996;28;20016;-75
2022/04/27 04:17:11;;;;;;;19.98;17.58;;;8.80;99.90;;;;;;5074072;28;20029;-75
2022/04/27 04:19:36;;;;;;;18.15;15.63;;;8.80;99.90;;;;;;5069802;28;20017;-75
2022/04/27 04:22:02;;;;;;;21.73;17.55;;;8.80;99.90;;;;;;5073889;28;20077;-75
2022/04/27 04:24:27;;;;;;;19.25;16.45;;;8.80;99.90;;;;;;5072712;28;20354;-75
2022/04/27 04:29:37;;;;;;;18.02;15.85;;;8.80;99.90;;;;;;5067829;28;20038;-75
2022/04/27 04:32:03;;;;;;;20.73;17.15;;;8.80;99.90;;;;;;5073870;28;20532;-75
2022/04/27 04:34:29;;;;;;;20.13;16.60;;;8.90;99.90;;;;;;5073851;28;20024;-74
2022/04/27 04:36:54;;;;;;;18.42;16.02;;;9.10;99.90;;;;;;5073905;28;20035;-75
2022/04/27 04:39:20;;;;;;;18.13;15.90;;;9.20;99.90;;;;;;5073843;28;20016;-75
2022/04/27 04:41:46;;;;;;;20.80;15.85;;;9.30;99.90;;;;;;5071516;28;20032;-76
2022/04/27 04:44:11;;;;;;;19.80;16.98;;;9.30;99.90;;;;;;5065770;28;20508;-74
2022/04/27 04:46:37;;;;;;;21.63;17.13;;;9.30;99.90;;;;;;5074626;28;20421;-75
2022/04/27 04:49:02;;;;;;;21.63;16.67;;;9.20;99.90;;;;;;5073565;28;20084;-75
2022/04/27 04:51:28;;;;;;;18.65;16.60;;;9.30;99.90;;;;;;5071024;28;20132;-75
2022/04/27 04:53:54;;;;;;;20.88;17.05;;;9.30;99.90;;;;;;5073440;28;20017;-75
2022/04/27 04:56:20;;;;;;;19.15;17.13;;;9.40;99.90;;;;;;5070329;28;20024;-75
2022/04/27 04:58:46;;;;;;;20.90;17.23;;;9.40;99.90;;;;;;5072448;28;20392;-75
2022/04/27 05:01:12;;;;;;;19.30;16.98;;;9.40;99.90;;;;;;5074795;28;20025;-75
2022/04/27 05:03:38;;;;;;;22.02;17.35;;;9.20;99.90;;;;;;5075168;28;20583;-76
2022/04/27 05:06:04;;;;;;;20.63;18.08;;;9.20;99.90;;;;;;5077313;28;20485;-75
2022/04/27 05:08:29;;;;;;;23.88;19.17;;;9.10;99.90;;;;;;5075174;28;20105;-75
2022/04/27 05:10:55;;;;;;;21.77;18.27;;;9.20;99.90;;;;;;5075718;28;20056;-76
2022/04/27 05:13:20;;;;;;;19.83;17.27;;;9.40;99.90;;;;;;5076974;28;20389;-76
2022/04/27 05:15:47;;;;;;;23.48;18.85;;;9.50;99.90;;;;;;5067842;28;20081;-76
2022/04/27 05:18:13;;;;;;;20.92;16.85;;;9.60;99.90;;;;;;5071163;28;20112;-74
2022/04/27 05:20:38;;;;;;;22.33;17.77;;;9.60;99.90;;;;;;5077731;28;20099;-75
2022/04/27 05:23:05;;;;;;;21.20;17.80;;;9.70;99.90;;;;;;5071087;28;20096;-75
2022/04/27 05:25:33;;;;;;;21.05;17.52;;;9.80;99.90;;;;;;5076938;28;20077;-76
2022/04/27 05:27:58;;;;;;;22.38;18.15;;;9.70;99.90;;;;;;5076080;28;20099;-75
2022/04/27 05:33:08;;;;;;;22.00;17.23;;;9.70;99.90;;;;;;5075411;28;20047;-75
2022/04/27 05:35:42;;;;;;;22.02;17.02;;;9.70;99.90;;;;;;5067072;28;20028;-76
2022/04/27 05:38:08;;;;;;;21.98;19.33;;;9.60;99.90;;;;;;5071126;28;20032;-75
2022/04/27 05:40:34;;;;;;;20.15;17.55;;;9.60;99.90;;;;;;5069254;28;20163;-74
2022/04/27 05:43:04;;;;;;;20.75;18.23;;;9.50;99.90;;;;;;5073668;28;20071;-75
2022/04/27 05:45:32;;;;;;;18.20;16.17;;;9.50;99.90;;;;;;5075378;28;20525;-75
2022/04/27 05:47:58;;;;;;;21.10;17.38;;;9.60;99.90;;;;;;5071819;28;20051;-75
2022/04/27 05:50:23;;;;;;;20.42;17.35;;;9.80;99.90;;;;;;5074371;28;20120;-75
2022/04/27 05:52:52;;;;;;;21.13;16.58;;;9.80;99.90;;;;;;5075337;28;20105;-76
2022/04/27 05:55:19;;;;;;;19.40;17.02;;;9.90;99.90;;;;;;5066448;28;20093;-75
2022/04/27 05:57:44;;;;;;;21.52;16.75;;;10.00;99.90;;;;;;5069281;28;20496;-76
2022/04/27 06:00:11;;;;;;;21.17;17.15;;;10.00;99.90;;;;;;5074771;28;20093;-74
2022/04/27 06:02:38;;;;;;;24.10;18.42;;;10.10;99.90;;;;;;5069876;28;20511;-75
2022/04/27 06:05:04;;;;;;;18.25;16.25;;;10.00;99.90;;;;;;5068618;28;20034;-75
2022/04/27 06:07:29;;;;;;;22.98;17.35;;;10.00;99.90;;;;;;5068767;28;20048;-74
2022/04/27 06:09:55;;;;;;;19.20;17.13;;;9.80;99.90;;;;;;5069013;28;20449;-75
2022/04/27 06:12:23;;;;;;;19.70;16.30;;;9.80;99.90;;;;;;5068987;28;20061;-75
2022/04/27 06:14:49;;;;;;;22.30;17.95;;;9.80;99.90;;;;;;5072064;28;20077;-75
2022/04/27 06:17:14;;;;;;;20.73;16.80;;;9.80;99.90;;;;;;5073816;28;20036;-75
2022/04/27 06:19:40;;;;;;;18.17;15.60;;;10.10;99.90;;;;;;5081022;28;20077;-75
2022/04/27 06:22:06;;;;;;;19.88;16.50;;;10.20;99.90;;;;;;5071633;28;20158;-74
2022/04/27 06:24:31;;;;;;;18.48;16.48;;;10.40;99.90;;;;;;5076202;28;20093;-75
2022/04/27 06:26:58;;;;;;;18.85;16.02;;;10.60;99.90;;;;;;5075507;28;20020;-74
2022/04/27 06:29:24;;;;;;;19.75;17.70;;;10.50;99.90;;;;;;5073505;28;20385;-75
2022/04/27 06:31:49;;;;;;;19.30;16.33;;;10.30;99.90;;;;;;5074663;28;20024;-74
2022/04/27 06:34:15;;;;;;;18.55;16.05;;;10.30;99.90;;;;;;5075594;28;20043;-75
2022/04/27 06:36:40;;;;;;;19.90;15.85;;;10.60;99.90;;;;;;5070746;28;20480;-75
2022/04/27 06:39:08;;;;;;;18.52;16.05;;;10.30;99.90;;;;;;5069893;28;20024;-75
2022/04/27 06:41:33;;;;;;;21.23;15.55;;;10.00;99.90;;;;;;5074349;28;20758;-75
2022/04/27 06:43:59;;;;;;;18.80;16.25;;;10.10;99.90;;;;;;5070192;28;20037;-75
2022/04/27 06:46:24;;;;;;;18.05;16.15;;;10.20;99.90;;;;;;5063277;28;20043;-74
2022/04/27 06:48:50;;;;;;;17.85;15.07;;;10.30;99.90;;;;;;5064140;28;20055;-75
2022/04/27 06:51:18;;;;;;;23.70;16.38;;;10.20;99.90;;;;;;5071059;28;20060;-76
2022/04/27 06:53:44;;;;;;;18.15;13.93;;;10.10;99.90;;;;;;5074253;28;20029;-74
2022/04/27 06:56:09;;;;;;;19.90;15.30;;;10.30;99.90;;;;;;5069940;28;20027;-75
2022/04/27 06:58:35;;;;;;;15.23;13.73;;;10.50;99.90;;;;;;5070015;28;20024;-75
2022/04/27 07:01:03;;;;;;;14.68;13.18;;;10.90;99.90;;;;;;5063791;28;20024;-73
2022/04/27 07:03:31;;;;;;;15.93;13.60;;;11.00;99.90;;;;;;5068156;28;20096;-74
2022/04/27 07:05:57;;;;;;;14.35;12.85;;;11.10;99.90;;;;;;5072466;28;20024;-73
2022/04/27 07:08:23;;;;;;;12.57;11.25;;;11.10;99.90;;;;;;5064143;28;20017;-73
2022/04/27 07:10:49;;;;;;;11.77;10.55;;;11.20;99.90;;;;;;5071242;28;20534;-74
2022/04/27 07:13:15;;;;;;;14.32;11.32;;;10.90;99.90;;;;;;5072276;28;20032;-74
2022/04/27 07:15:40;;;;;;;13.02;10.15;;;10.90;99.90;;;;;;5070008;28;20035;-73
2022/04/27 07:18:06;;;;;;;14.63;10.68;;;11.30;99.90;;;;;;5070776;28;20081;-73
2022/04/27 07:20:31;;;;;;;10.93;9.82;;;11.40;99.90;;;;;;5069896;28;20077;-74
2022/04/27 07:22:57;;;;;;;11.77;10.25;;;11.50;99.90;;;;;;5072272;28;20489;-73
2022/04/27 07:25:23;;;;;;;10.15;9.00;;;11.60;99.90;;;;;;5070970;28;20381;-73
2022/04/27 07:27:49;;;;;;;10.82;9.50;;;11.70;99.90;;;;;;5072617;28;20582;-73
2022/04/27 07:30:15;;;;;;;10.55;9.55;;;11.80;99.90;;;;;;5074001;28;20485;-74
2022/04/27 07:32:41;;;;;;;10.20;9.20;;;12.00;99.90;;;;;;5068450;28;20021;-73
2022/04/27 07:35:07;;;;;;;10.18;9.18;;;11.80;99.90;;;;;;5075752;28;20035;-73
2022/04/27 07:37:37;;;;;;;9.70;8.73;;;11.90;99.90;;;;;;5070011;28;20025;-74
2022/04/27 07:40:06;;;;;;;9.18;8.27;;;11.80;99.90;;;;;;5071196;28;20032;-74
2022/04/27 07:42:32;;;;;;;8.85;7.80;;;12.10;99.90;;;;;;5069266;28;20496;-73
2022/04/27 07:44:58;;;;;;;10.27;9.10;;;12.70;99.90;;;;;;5072217;28;20074;-73
2022/04/27 07:47:23;;;;;;;10.75;8.80;;;13.20;99.90;;;;;;5074927;28;20029;-73
2022/04/27 07:49:49;;;;;;;9.60;8.70;;;13.00;99.90;;;;;;5073314;28;20032;-72
2022/04/27 07:52:15;;;;;;;9.18;8.38;;;13.20;99.90;;;;;;5070352;28;20025;-73
2022/04/27 07:54:42;;;;;;;8.63;7.80;;;12.70;99.90;;;;;;5070956;28;20066;-74
2022/04/27 07:57:08;;;;;;;10.05;8.73;;;12.50;99.90;;;;;;5074792;28;20085;-74
2022/04/27 07:59:33;;;;;;;9.10;8.18;;;12.60;99.90;;;;;;5072029;28;20025;-73
2022/04/27 08:01:59;;;;;;;9.18;8.15;;;12.60;99.90;;;;;;5072665;28;20492;-74
2022/04/27 08:04:24;;;;;;;10.75;8.32;;;12.60;99.90;;;;;;5074418;28;20054;-74
2022/04/27 08:06:50;;;;;;;8.68;7.88;;;12.50;99.90;;;;;;5073688;28;20024;-73
2022/04/27 08:09:16;;;;;;;10.20;7.72;;;12.90;99.90;;;;;;5074346;28;20040;-75
2022/04/27 08:11:42;;;;;;;9.43;8.43;;;13.20;99.90;;;;;;5072796;28;20054;-73
2022/04/27 08:14:08;;;;;;;8.90;7.18;;;13.40;99.90;;;;;;5073447;28;20118;-74
2022/04/27 08:16:34;;;;;;;9.00;8.00;;;13.60;99.90;;;;;;5069996;28;20017;-73
2022/04/27 08:19:00;;;;;;;8.00;7.22;;;14.30;99.90;;;;;;5073377;28;20016;-73
2022/04/27 08:21:27;;;;;;;7.32;6.57;;;14.40;99.90;;;;;;5081695;28;20396;-73
2022/04/27 08:23:53;;;;;;;6.68;5.97;;;14.20;99.90;;;;;;5074199;28;20028;-74
2022/04/27 08:26:19;;;;;;;7.45;6.70;;;15.20;99.90;;;;;;5080324;28;20043;-73
2022/04/27 08:28:45;;;;;;;7.13;6.43;;;15.30;99.90;;;;;;5072702;28;20468;-73
2022/04/27 08:31:13;;;;;;;9.45;8.55;;;15.00;99.90;;;;;;5074523;28;20078;-73
2022/04/27 08:33:39;;;;;;;8.88;7.97;;;15.30;99.90;;;;;;5071889;28;20029;-75
2022/04/27 08:36:06;;;;;;;7.85;7.05;;;15.40;99.90;;;;;;5081280;28;20085;-73
2022/04/27 08:38:34;;;;;;;8.25;7.45;;;15.30;99.90;;;;;;5073799;28;20108;-74
2022/04/27 08:40:59;;;;;;;9.10;8.20;;;14.90;99.90;;;;;;5072537;28;20027;-75
2022/04/27 08:43:26;;;;;;;8.43;7.63;;;14.80;99.90;;;;;;5073475;28;20107;-74
2022/04/27 08:45:52;;;;;;;9.30;7.35;;;14.50;99.90;;;;;;5073796;28;20029;-75
2022/04/27 08:48:18;;;;;;;9.32;7.82;;;14.60;99.90;;;;;;5073747;28;20584;-73
2022/04/27 08:50:45;;;;;;;8.30;7.50;;;14.40;99.90;;;;;;5070235;28;20040;-75
2022/04/27 08:53:11;;;;;;;8.50;7.60;;;14.60;99.90;;;;;;5073250;28;20025;-77
2022/04/27 08:55:38;;;;;;;8.15;7.38;;;14.70;99.90;;;;;;5072091;28;20020;-75
2022/04/27 08:58:15;;;;;;;8.30;7.50;;;14.80;99.90;;;;;;5074348;28;20488;-76
2022/04/27 09:00:42;;;;;;;8.57;7.65;;;14.90;99.90;;;;;;5077534;28;20162;-74
2022/04/27 09:03:41;;;;;;;9.10;7.50;;;14.50;99.90;;;;;;5071215;28;20604;-75
2022/04/27 09:06:09;;;;;;;7.20;6.45;;;14.90;99.90;;;;;;5062319;28;20043;-75
2022/04/27 09:08:43;;;;;;;7.43;6.32;;;15.00;99.90;;;;;;5073497;28;20016;-74
2022/04/27 09:11:25;;;;;;;7.47;6.70;;;14.90;99.90;;;;;;5073257;28;20027;-75
2022/04/27 09:13:55;;;;;;;8.73;7.82;;;15.00;99.90;;;;;;5073072;28;20028;-75
2022/04/27 09:16:27;;;;;;;7.75;6.70;;;15.10;99.90;;;;;;5072783;28;20032;-75
2022/04/27 09:22:00;;;;;;;6.75;6.07;;;15.10;99.90;;;;;;5067494;28;20073;-74
2022/04/27 09:24:27;;;;;;;6.03;5.43;;;14.90;99.90;;;;;;5063740;28;20024;-75
2022/04/27 09:27:11;;;;;;;5.82;5.22;;;15.10;99.90;;;;;;5070445;28;20081;-74
2022/04/27 09:29:36;;;;;;;6.50;5.82;;;15.10;99.90;;;;;;5064250;28;20116;-76
2022/04/27 09:32:04;;;;;;;6.60;5.95;;;14.90;99.90;;;;;;5083656;28;20107;-75
2022/04/27 09:34:46;;;;;;;6.80;5.68;;;14.80;99.90;;;;;;5070022;28;20029;-73
2022/04/27 09:37:24;;;;;;;6.78;5.53;;;14.90;99.90;;;;;;5069569;28;20039;-75
2022/04/27 09:40:11;;;;;;;6.40;5.72;;;15.20;99.90;;;;;;5070509;28;20024;-74
2022/04/27 09:42:41;;;;;;;6.47;5.78;;;15.20;99.90;;;;;;5068370;28;20029;-74
2022/04/27 09:45:17;;;;;;;6.03;5.53;;;15.30;99.90;;;;;;5072147;28;20016;-75
2022/04/27 09:47:53;;;;;;;6.47;5.80;;;15.30;99.90;;;;;;5073391;28;20025;-74
2022/04/27 09:50:19;;;;;;;5.28;4.78;;;15.30;99.90;;;;;;5072523;28;20074;-74
2022/04/27 09:52:45;;;;;;;5.28;4.78;;;15.40;99.90;;;;;;5070063;28;20020;-76
2022/04/27 09:55:11;;;;;;;6.25;4.88;;;15.50;99.90;;;;;;5070597;28;20032;-74
2022/04/27 09:57:38;;;;;;;5.30;4.53;;;15.80;99.90;;;;;;5071932;28;20016;-74
2022/04/27 10:00:04;;;;;;;6.68;4.97;;;15.40;99.90;;;;;;5073132;28;20542;-74
2022/04/27 10:02:31;;;;;;;5.85;5.15;;;15.80;99.90;;;;;;5077500;28;20342;-73
2022/04/27 10:04:59;;;;;;;5.30;4.80;;;16.00;99.90;;;;;;5072986;28;20129;-74
2022/04/27 10:07:25;;;;;;;4.97;4.47;;;15.80;99.90;;;;;;5068039;28;20051;-74
2022/04/27 10:09:52;;;;;;;4.72;4.22;;;16.20;99.90;;;;;;5069955;28;20016;-74
2022/04/27 10:12:18;;;;;;;4.47;4.07;;;16.30;99.90;;;;;;5070290;28;20615;-73
2022/04/27 10:14:44;;;;;;;4.85;4.45;;;15.90;99.90;;;;;;5073558;28;20071;-74
2022/04/27 10:17:13;;;;;;;4.15;3.80;;;16.10;99.90;;;;;;5072511;28;20106;-74
2022/04/27 10:19:50;;;;;;;3.38;3.08;;;16.30;99.90;;;;;;5071680;28;20101;-74
2022/04/27 10:22:31;;;;;;;2.90;2.70;;;16.50;99.90;;;;;;5072452;28;20021;-73
2022/04/27 10:25:03;;;;;;;3.22;2.92;;;16.30;99.90;;;;;;5069343;28;20028;-74
2022/04/27 10:27:40;;;;;;;2.95;2.75;;;16.30;99.90;;;;;;5063731;28;20472;-73
2022/04/27 10:30:11;;;;;;;3.15;2.85;;;16.20;99.90;;;;;;5069989;28;20016;-75
2022/04/27 10:32:39;;;;;;;3.15;2.67;;;16.30;99.90;;;;;;5075916;28;20760;-75
2022/04/27 10:35:17;;;;;;;3.47;3.17;;;16.20;99.90;;;;;;5066351;28;20029;-74
2022/04/27 10:37:51;;;;;;;2.95;2.65;;;16.00;99.90;;;;;;5070210;28;20032;-73
2022/04/27 10:40:26;;;;;;;2.72;2.53;;;15.70;99.90;;;;;;5069347;28;20020;-74
2022/04/27 10:42:52;;;;;;;3.22;2.92;;;15.30;99.90;;;;;;5083496;28;20562;-75
2022/04/27 10:45:23;;;;;;;3.42;2.83;;;15.30;99.90;;;;;;5071077;28;20071;-73
2022/04/27 10:47:50;;;;;;;3.13;2.83;;;15.10;99.90;;;;;;5070038;28;20434;-74
2022/04/27 10:50:17;;;;;;;3.50;3.20;;;15.30;99.90;;;;;;5069911;28;20025;-74
2022/04/27 10:52:51;;;;;;;2.85;2.65;;;15.40;99.90;;;;;;5071576;28;20385;-74
2022/04/27 10:55:35;;;;;;;3.53;2.92;;;15.40;99.90;;;;;;5069219;28;20466;-74
2022/04/27 10:58:32;;;;;;;3.63;3.25;;;15.40;99.90;;;;;;5068598;28;20396;-73
2022/04/27 11:00:58;;;;;;;3.72;3.42;;;15.30;99.90;;;;;;5063556;28;20064;-73
2022/04/27 11:03:25;;;;;;;2.92;2.58;;;15.40;99.90;;;;;;5070450;28;20063;-74
2022/04/27 11:05:52;;;;;;;3.95;3.13;;;15.60;99.90;;;;;;5070317;28;20093;-74
2022/04/27 11:08:26;;;;;;;3.15;2.95;;;15.70;99.90;;;;;;5069649;28;20024;-74
2022/04/27 11:10:55;;;;;;;3.20;3.00;;;16.10;99.90;;;;;;5086457;28;20016;-75
2022/04/27 11:13:25;;;;;;;3.55;3.25;;;16.30;99.90;;;;;;5074925;28;20423;-76
2022/04/27 11:15:51;;;;;;;4.68;3.83;;;16.30;99.90;;;;;;5074946;28;20477;-74
2022/04/27 11:18:16;;;;;;;3.72;3.42;;;16.00;99.90;;;;;;5080354;28;20036;-74
2022/04/27 11:20:43;;;;;;;5.75;3.20;;;16.40;99.90;;;;;;5070687;28;20108;-74
2022/04/27 11:23:23;;;;;;;3.45;3.15;;;16.20;99.90;;;;;;5076300;28;20031;-74
2022/04/27 11:25:51;;;;;;;3.60;3.30;;;16.70;99.90;;;;;;5074092;28;20070;-74
2022/04/27 11:28:17;;;;;;;3.88;3.30;;;16.40;99.90;;;;;;5073386;28;20025;-73
2022/04/27 11:30:44;;;;;;;3.65;3.35;;;16.00;99.90;;;;;;5075999;28;20095;-73
2022/04/27 11:33:11;;;;;;;3.38;3.15;;;15.90;99.90;;;;;;5074271;28;20078;-74
2022/04/27 11:35:47;;;;;;;5.38;4.05;;;16.20;99.90;;;;;;5072380;28;20147;-73
2022/04/27 11:38:19;;;;;;;5.93;3.60;;;16.90;99.90;;;;;;5076685;28;20027;-74
2022/04/27 11:40:46;;;;;;;3.72;3.25;;;17.10;99.90;;;;;;5073330;28;20461;-73
2022/04/27 11:43:13;;;;;;;4.80;3.28;;;17.00;99.90;;;;;;5072968;28;20374;-73
2022/04/27 11:45:38;;;;;;;4.68;3.60;;;17.00;99.90;;;;;;5075159;28;20025;-74
2022/04/27 11:48:08;;;;;;;4.20;3.90;;;16.60;99.90;;;;;;5075045;28;20314;-73
2022/04/27 11:50:36;;;;;;;4.50;4.10;;;16.30;99.90;;;;;;5073727;28;20024;-74
2022/04/27 11:53:11;;;;;;;4.68;4.13;;;16.20;99.90;;;;;;5080164;28;20427;-74
2022/04/27 11:55:38;;;;;;;4.25;3.85;;;16.10;99.90;;;;;;5068873;28;20445;-74
2022/04/27 11:58:05;;;;;;;3.88;3.58;;;15.70;99.90;;;;;;5072323;28;20036;-73
2022/04/27 12:00:31;;;;;;;7.32;3.80;;;15.50;99.90;;;;;;5072075;28;20031;-72
2022/04/27 12:03:03;;;;;;;3.30;3.03;;;15.70;99.90;;;;;;5073852;28;20104;-74
2022/04/27 12:05:34;;;;;;;3.47;3.17;;;15.90;99.90;;;;;;5072700;28;20025;-73
2022/04/27 12:08:07;;;;;;;;;;;16.00;99.90;;;;;;5082722;28;20016;-75
2022/04/27 12:10:44;;;;;;;4.50;3.72;;;16.20;99.90;;;;;;5073685;28;19960;-74
2022/04/27 12:13:11;;;;;;;3.42;3.13;;;16.40;99.90;;;;;;5072389;28;20040;-76
2022/04/27 12:15:39;;;;;;;3.97;3.55;;;16.60;99.80;;;;;;5081510;28;20031;-73
2022/04/27 12:18:05;;;;;;;4.82;3.08;;;17.00;99.40;;;;;;5075729;28;20074;-74
2022/04/27 12:20:37;;;;;;;3.55;3.25;;;16.90;99.20;;;;;;5072278;28;20391;-74
2022/04/27 12:23:12;;;;;;;3.00;2.75;;;17.00;98.50;;;;;;5072589;28;20421;-75
2022/04/27 12:25:57;;;;;;;4.13;2.92;;;16.90;98.60;;;;;;5071351;28;20047;-74
2022/04/27 12:28:24;;;;;;;2.90;2.70;;;16.70;98.30;;;;;;5067225;28;20492;-73
2022/04/27 12:30:58;;;;;;;3.45;3.15;;;16.70;98.20;;;;;;5074763;28;20081;-73
2022/04/27 12:33:29;;;;;;;2.72;2.53;;;16.30;98.60;;;;;;5073698;28;20017;-74
2022/04/27 12:39:01;;;;;;;3.10;2.78;;;16.30;99.80;;;;;;5073683;28;19911;-75
2022/04/27 12:41:47;;;;;;;3.63;3.33;;;16.90;99.00;;;;;;5068793;28;20012;-73
2022/04/27 12:44:12;;;;;;;3.60;3.30;;;16.80;99.50;;;;;;5073365;28;20111;-73
2022/04/27 12:46:54;;;;;;;4.05;3.30;;;16.90;99.20;;;;;;5075076;28;20457;-74
2022/04/27 12:49:30;;;;;;;4.35;3.22;;;16.70;99.90;;;;;;5073717;28;20469;-74
2022/04/27 12:52:32;;;;;;;3.80;3.50;;;16.20;99.90;;;;;;5074637;28;20020;-75
2022/04/27 12:55:04;;;;;;;4.05;3.70;;;16.10;99.90;;;;;;5076929;28;20027;-75
2022/04/27 12:57:50;;;;;;;3.65;3.35;;;15.90;99.90;;;;;;5074816;28;20050;-74
2022/04/27 13:00:21;;;;;;;3.90;3.60;;;15.60;99.90;;;;;;5077867;28;20443;-74
2022/04/27 13:02:47;;;;;;;3.60;3.22;;;15.80;99.90;;;;;;5072412;28;20032;-73